sensor_id;sensor_type;location;lat;lon;timestamp;P1;durP1;ratioP1;P2;durP2;ratioP2
60885;SDS011;46736;41.654;-8.438;2024-01-30T14:56:35;0.20;;;0.20;;
60885;SDS011;46736;41.654;-8.438;2024-01-30T14:58:36;0.20;;;0.20;;
60885;SDS011;46736;41.654;-8.438;2024-01-30T15:00:38;0.20;;;0.20;;
60885;SDS011;46736;41.654;-8.438;2024-01-30T15:03:02;0.30;;;0.30;;
60885;SDS011;46736;41.654;-8.438;2024-01-30T15:06:12;0.28;;;0.28;;
60885;SDS011;46736;41.654;-8.438;2024-01-30T15:08:29;0.20;;;0.20;;
60885;SDS011;46736;41.654;-8.438;2024-01-30T15:13:51;0.30;;;0.30;;
60885;SDS011;46736;41.654;-8.438;2024-01-30T15:16:44;0.30;;;0.30;;
60885;SDS011;46736;41.654;-8.438;2024-01-30T15:18:45;0.20;;;0.20;;
60885;SDS011;46736;41.654;-8.438;2024-01-30T15:21:24;0.20;;;0.20;;
60885;SDS011;46736;41.654;-8.438;2024-01-30T15:23:29;0.30;;;0.30;;
60885;SDS011;46736;41.654;-8.438;2024-01-30T15:25:30;0.20;;;0.20;;
60885;SDS011;46736;41.654;-8.438;2024-01-30T15:27:31;0.20;;;0.20;;
60885;SDS011;46736;41.654;-8.438;2024-01-30T15:32:23;0.30;;;0.30;;
60885;SDS011;46736;41.654;-8.438;2024-01-30T15:34:43;0.30;;;0.30;;
60885;SDS011;46736;41.654;-8.438;2024-01-30T15:36:48;0.30;;;0.30;;
60885;SDS011;46736;41.654;-8.438;2024-01-30T15:40:10;0.30;;;0.30;;
60885;SDS011;46736;41.654;-8.438;2024-01-30T15:42:26;0.30;;;0.30;;
60885;SDS011;46736;41.654;-8.438;2024-01-30T15:45:28;0.30;;;0.30;;
60885;SDS011;46736;41.654;-8.438;2024-01-30T15:47:38;0.30;;;0.30;;
60885;SDS011;46736;41.654;-8.438;2024-01-30T16:05:12;0.30;;;0.30;;
60885;SDS011;46736;41.654;-8.438;2024-01-30T16:07:14;0.30;;;0.30;;
60885;SDS011;46736;41.654;-8.438;2024-01-30T16:09:15;0.30;;;0.30;;
60885;SDS011;46736;41.654;-8.438;2024-01-30T16:11:21;0.30;;;0.30;;
60885;SDS011;46736;41.654;-8.438;2024-01-30T16:15:58;0.30;;;0.30;;
60885;SDS011;46736;41.654;-8.438;2024-01-30T16:17:58;0.30;;;0.30;;
60885;SDS011;46736;41.654;-8.438;2024-01-30T16:20:54;0.30;;;0.30;;
60885;SDS011;46736;41.654;-8.438;2024-01-30T16:22:55;0.20;;;0.20;;
60885;SDS011;46736;41.654;-8.438;2024-01-30T16:24:56;0.30;;;0.30;;
60885;SDS011;46736;41.654;-8.438;2024-01-30T16:26:59;0.30;;;0.30;;
60885;SDS011;46736;41.654;-8.438;2024-01-30T16:29:00;0.30;;;0.30;;
60885;SDS011;46736;41.654;-8.438;2024-01-30T16:38:09;0.30;;;0.30;;
60885;SDS011;46736;41.654;-8.438;2024-01-30T16:40:09;0.25;;;0.25;;
60885;SDS011;46736;41.654;-8.438;2024-01-30T16:42:14;0.30;;;0.30;;
60885;SDS011;46736;41.654;-8.438;2024-01-30T16:49:17;0.30;;;0.30;;
60885;SDS011;46736;41.654;-8.438;2024-01-30T17:21:59;0.30;;;0.30;;
60885;SDS011;46736;41.654;-8.438;2024-01-30T17:57:52;0.20;;;0.20;;
60885;SDS011;46736;41.654;-8.438;2024-01-30T18:55:24;0.30;;;0.30;;
60885;SDS011;46736;41.654;-8.438;2024-01-30T21:24:52;0.50;;;0.50;;
60885;SDS011;46736;41.654;-8.438;2024-01-30T21:31:13;0.50;;;0.50;;
60885;SDS011;46736;41.654;-8.438;2024-01-30T21:34:33;0.50;;;0.50;;
60885;SDS011;46736;41.654;-8.438;2024-01-30T22:01:38;0.50;;;0.50;;
60885;SDS011;46736;41.654;-8.438;2024-01-30T22:04:45;0.40;;;0.40;;
60885;SDS011;46736;41.654;-8.438;2024-01-30T22:14:11;0.43;;;0.43;;
60885;SDS011;46736;41.654;-8.438;2024-01-30T22:20:21;0.50;;;0.50;;
60885;SDS011;46736;41.654;-8.438;2024-01-30T22:23:24;0.45;;;0.45;;
60885;SDS011;46736;41.654;-8.438;2024-01-30T22:26:28;0.50;;;0.50;;
60885;SDS011;46736;41.654;-8.438;2024-01-30T22:29:41;0.50;;;0.50;;
60885;SDS011;46736;41.654;-8.438;2024-01-30T22:32:27;0.60;;;0.60;;
60885;SDS011;46736;41.654;-8.438;2024-01-30T22:34:37;0.50;;;0.50;;
60885;SDS011;46736;41.654;-8.438;2024-01-30T22:37:29;0.40;;;0.40;;
60885;SDS011;46736;41.654;-8.438;2024-01-30T22:39:33;0.60;;;0.60;;
60885;SDS011;46736;41.654;-8.438;2024-01-30T22:42:03;0.57;;;0.57;;
60885;SDS011;46736;41.654;-8.438;2024-01-30T22:44:33;0.55;;;0.55;;
60885;SDS011;46736;41.654;-8.438;2024-01-30T22:48:41;0.50;;;0.50;;
60885;SDS011;46736;41.654;-8.438;2024-01-30T22:50:41;0.50;;;0.50;;
60885;SDS011;46736;41.654;-8.438;2024-01-30T22:52:42;0.55;;;0.55;;
60885;SDS011;46736;41.654;-8.438;2024-01-30T22:54:43;0.40;;;0.40;;
60885;SDS011;46736;41.654;-8.438;2024-01-30T22:56:44;0.50;;;0.50;;
60885;SDS011;46736;41.654;-8.438;2024-01-30T22:58:50;0.47;;;0.47;;
60885;SDS011;46736;41.654;-8.438;2024-01-30T23:00:51;0.50;;;0.50;;
60885;SDS011;46736;41.654;-8.438;2024-01-30T23:02:52;0.50;;;0.50;;
60885;SDS011;46736;41.654;-8.438;2024-01-30T23:04:56;0.50;;;0.50;;
60885;SDS011;46736;41.654;-8.438;2024-01-30T23:06:56;0.45;;;0.45;;
60885;SDS011;46736;41.654;-8.438;2024-01-30T23:08:57;0.57;;;0.57;;
60885;SDS011;46736;41.654;-8.438;2024-01-30T23:11:00;0.47;;;0.47;;
60885;SDS011;46736;41.654;-8.438;2024-01-30T23:13:01;0.50;;;0.50;;
60885;SDS011;46736;41.654;-8.438;2024-01-30T23:15:03;0.50;;;0.50;;
60885;SDS011;46736;41.654;-8.438;2024-01-30T23:17:03;0.60;;;0.60;;
60885;SDS011;46736;41.654;-8.438;2024-01-30T23:19:04;0.50;;;0.50;;
60885;SDS011;46736;41.654;-8.438;2024-01-30T23:21:08;0.60;;;0.60;;
60885;SDS011;46736;41.654;-8.438;2024-01-30T23:23:08;0.50;;;0.50;;
60885;SDS011;46736;41.654;-8.438;2024-01-30T23:25:09;0.65;;;0.65;;
60885;SDS011;46736;41.654;-8.438;2024-01-30T23:27:10;0.60;;;0.60;;
60885;SDS011;46736;41.654;-8.438;2024-01-30T23:29:10;0.50;;;0.50;;
60885;SDS011;46736;41.654;-8.438;2024-01-30T23:31:11;0.50;;;0.50;;
60885;SDS011;46736;41.654;-8.438;2024-01-30T23:33:12;0.70;;;0.70;;
60885;SDS011;46736;41.654;-8.438;2024-01-30T23:35:12;0.70;;;0.70;;
60885;SDS011;46736;41.654;-8.438;2024-01-30T23:37:13;0.30;;;0.30;;
60885;SDS011;46736;41.654;-8.438;2024-01-30T23:41:38;0.60;;;0.60;;
60885;SDS011;46736;41.654;-8.438;2024-01-30T23:43:39;0.50;;;0.50;;
60885;SDS011;46736;41.654;-8.438;2024-01-30T23:45:39;0.50;;;0.50;;
60885;SDS011;46736;41.654;-8.438;2024-01-30T23:47:40;0.60;;;0.60;;
60885;SDS011;46736;41.654;-8.438;2024-01-30T23:49:41;0.50;;;0.50;;
60885;SDS011;46736;41.654;-8.438;2024-01-30T23:51:42;0.55;;;0.55;;
60885;SDS011;46736;41.654;-8.438;2024-01-30T23:53:43;0.60;;;0.60;;
60885;SDS011;46736;41.654;-8.438;2024-01-30T23:55:43;0.60;;;0.60;;
60885;SDS011;46736;41.654;-8.438;2024-01-30T23:57:44;0.60;;;0.60;;
60885;SDS011;46736;41.654;-8.438;2024-01-30T23:59:44;0.57;;;0.57;;
